createdAt,value
2018-06-10T00:00:06.322Z,24.47
2018-06-10T00:00:38.339Z,24.42
2018-06-10T00:01:10.386Z,24.41
2018-06-10T00:01:42.398Z,24.41
2018-06-10T00:02:14.411Z,24.41
2018-06-10T00:02:46.438Z,24.41
2018-06-10T00:03:18.480Z,24.42
2018-06-10T00:03:50.494Z,24.42
2018-06-10T00:04:22.541Z,24.44
2018-06-10T00:04:54.558Z,24.45
2018-06-10T00:05:26.610Z,24.47
2018-06-10T00:05:58.614Z,24.47
2018-06-10T00:06:30.632Z,24.46
2018-06-10T00:07:02.646Z,24.46
2018-06-10T00:07:34.681Z,24.44
2018-06-10T00:08:06.721Z,24.45
2018-06-10T00:08:38.742Z,24.47
2018-06-10T00:09:10.773Z,24.45
2018-06-10T00:09:42.794Z,24.44
2018-06-10T00:10:14.815Z,24.44
2018-06-10T00:10:46.825Z,24.44
2018-06-10T00:11:18.830Z,24.40
2018-06-10T00:11:50.891Z,24.37
2018-06-10T00:12:22.918Z,24.39
2018-06-10T00:12:54.931Z,24.36
2018-06-10T00:13:26.971Z,24.34
2018-06-10T00:13:58.988Z,24.30
2018-06-10T00:14:31.007Z,24.29
2018-06-10T00:15:03.020Z,24.26
2018-06-10T00:15:35.036Z,24.25
2018-06-10T00:16:07.070Z,24.25
2018-06-10T00:16:39.123Z,24.24
2018-06-10T00:17:11.125Z,24.25
2018-06-10T00:17:43.181Z,24.24
2018-06-10T00:18:15.220Z,24.24
2018-06-10T00:18:47.239Z,24.24
2018-06-10T00:19:19.254Z,24.25
2018-06-10T00:19:51.283Z,24.24
2018-06-10T00:20:23.299Z,24.25
2018-06-10T00:20:55.319Z,24.25
2018-06-10T00:21:27.329Z,24.27
2018-06-10T00:21:59.357Z,24.25
2018-06-10T00:22:31.375Z,24.26
2018-06-10T00:23:03.425Z,24.26
2018-06-10T00:23:35.446Z,24.28
2018-06-10T00:24:07.455Z,24.27
2018-06-10T00:24:39.466Z,24.27
2018-06-10T00:25:11.507Z,24.29
2018-06-10T00:25:43.510Z,24.32
2018-06-10T00:26:15.594Z,24.30
2018-06-10T00:26:47.613Z,24.29
2018-06-10T00:27:19.670Z,24.30
2018-06-10T00:27:51.679Z,24.27
2018-06-10T00:28:23.717Z,24.26
2018-06-10T00:28:55.726Z,24.21
2018-06-10T00:29:27.743Z,24.19
2018-06-10T00:29:59.870Z,24.18
2018-06-10T00:30:31.863Z,24.17
2018-06-10T00:31:03.940Z,24.17
2018-06-10T00:31:36.286Z,24.15
2018-06-10T00:32:08.178Z,24.19
2018-06-10T00:32:40.216Z,24.18
2018-06-10T00:33:12.227Z,24.17
2018-06-10T00:33:44.260Z,24.15
2018-06-10T00:34:16.306Z,24.14
2018-06-10T00:34:48.349Z,24.13
2018-06-10T00:35:20.347Z,24.12
2018-06-10T00:35:52.351Z,24.10
2018-06-10T00:36:24.361Z,24.12
2018-06-10T00:36:56.396Z,24.13
2018-06-10T00:37:28.410Z,24.13
2018-06-10T00:38:00.422Z,24.15
2018-06-10T00:38:32.430Z,24.13
2018-06-10T00:39:04.457Z,24.14
2018-06-10T00:39:36.473Z,24.14
2018-06-10T00:40:08.495Z,24.12
2018-06-10T00:40:40.506Z,24.13
2018-06-10T00:41:12.514Z,24.13
2018-06-10T00:41:44.570Z,24.14
2018-06-10T00:42:16.586Z,24.14
2018-06-10T00:42:48.603Z,24.15
2018-06-10T00:43:20.618Z,24.18
2018-06-10T00:43:52.641Z,24.18
2018-06-10T00:44:24.647Z,24.19
2018-06-10T00:44:56.674Z,24.19
2018-06-10T00:45:28.690Z,24.20
2018-06-10T00:46:00.695Z,24.21
2018-06-10T00:46:32.707Z,24.19
2018-06-10T00:47:04.767Z,24.17
2018-06-10T00:47:36.794Z,24.18
2018-06-10T00:48:08.822Z,24.15
2018-06-10T00:48:40.834Z,24.13
2018-06-10T00:49:12.870Z,24.13
2018-06-10T00:49:44.879Z,24.11
2018-06-10T00:50:16.886Z,24.15
2018-06-10T00:50:48.887Z,24.17
2018-06-10T00:51:20.928Z,24.17
2018-06-10T00:51:52.916Z,24.18
2018-06-10T00:52:24.931Z,24.18
2018-06-10T00:52:56.944Z,24.16
2018-06-10T00:53:28.949Z,24.12
2018-06-10T00:54:00.973Z,24.12
2018-06-10T00:54:32.983Z,24.09
2018-06-10T00:55:05.005Z,24.08
2018-06-10T00:55:37.029Z,24.09
2018-06-10T00:56:09.072Z,24.08
2018-06-10T00:56:41.083Z,24.12
2018-06-10T00:57:13.147Z,24.13
2018-06-10T00:57:45.151Z,24.11
2018-06-10T00:58:17.190Z,24.11
2018-06-10T00:58:49.178Z,24.12
2018-06-10T00:59:21.207Z,24.14
2018-06-10T00:59:53.213Z,24.10
2018-06-10T01:00:25.222Z,24.11
2018-06-10T01:00:57.233Z,24.10
2018-06-10T01:01:29.254Z,24.08
2018-06-10T01:02:01.279Z,24.09
2018-06-10T01:02:33.291Z,24.12
2018-06-10T01:03:05.339Z,24.12
2018-06-10T01:03:37.415Z,24.15
2018-06-10T01:04:09.445Z,24.20
2018-06-10T01:04:41.638Z,24.24
2018-06-10T01:05:13.630Z,24.25
2018-06-10T01:05:45.671Z,24.26
2018-06-10T01:06:17.724Z,24.24
2018-06-10T01:06:49.735Z,24.21
2018-06-10T01:07:21.787Z,24.20
2018-06-10T01:07:53.837Z,24.21
2018-06-10T01:08:25.878Z,24.17
2018-06-10T01:08:57.963Z,24.14
2018-06-10T01:09:29.968Z,24.13
2018-06-10T01:10:01.979Z,24.10
2018-06-10T01:10:34.017Z,24.09
2018-06-10T01:11:06.044Z,24.07
2018-06-10T01:11:38.087Z,24.02
2018-06-10T01:12:10.276Z,24.02
2018-06-10T01:12:42.435Z,24.01
2018-06-10T01:13:14.458Z,24.01
2018-06-10T01:13:46.558Z,24.02
2018-06-10T01:14:18.586Z,24.04
2018-06-10T01:14:50.700Z,24.02
2018-06-10T01:15:22.779Z,24.05
2018-06-10T01:15:54.838Z,24.03
2018-06-10T01:16:26.866Z,24.03
2018-06-10T01:16:58.894Z,24.04
2018-06-10T01:17:31.083Z,24.01
2018-06-10T01:18:03.107Z,24.01
2018-06-10T01:18:35.142Z,24.01
2018-06-10T01:19:07.150Z,23.99
2018-06-10T01:19:39.192Z,23.99
2018-06-10T01:20:11.242Z,24.01
2018-06-10T01:20:43.282Z,24.08
2018-06-10T01:21:15.563Z,24.12
2018-06-10T01:21:47.616Z,24.18
2018-06-10T01:22:19.647Z,24.21
2018-06-10T01:22:51.691Z,24.21
2018-06-10T01:23:23.740Z,24.17
2018-06-10T01:23:55.892Z,24.17
2018-06-10T01:24:27.968Z,24.14
2018-06-10T01:25:00.016Z,24.13
2018-06-10T01:25:32.116Z,24.10
2018-06-10T01:26:04.127Z,24.09
2018-06-10T01:26:36.256Z,24.12
2018-06-10T01:27:08.298Z,24.11
2018-06-10T01:27:40.323Z,24.14
2018-06-10T01:28:12.378Z,24.13
2018-06-10T01:28:44.386Z,24.13
2018-06-10T01:29:16.419Z,24.14
2018-06-10T01:29:48.464Z,24.11
2018-06-10T01:30:20.483Z,24.11
2018-06-10T01:30:52.525Z,24.10
2018-06-10T01:31:24.554Z,24.11
2018-06-10T01:31:56.806Z,24.08
2018-06-10T01:32:28.822Z,24.10
2018-06-10T01:33:00.881Z,24.07
2018-06-10T01:33:32.929Z,24.07
2018-06-10T01:34:04.974Z,24.02
2018-06-10T01:34:37.007Z,24.02
2018-06-10T01:35:09.060Z,24.04
2018-06-10T01:35:41.019Z,24.02
2018-06-10T01:36:13.067Z,24.03
2018-06-10T01:36:45.105Z,24.04
2018-06-10T01:37:17.291Z,24.04
2018-06-10T01:37:49.502Z,24.03
2018-06-10T01:38:21.706Z,24.03
2018-06-10T01:38:53.711Z,23.98
2018-06-10T01:39:25.878Z,23.96
2018-06-10T01:39:57.947Z,23.93
2018-06-10T01:40:29.981Z,23.91
2018-06-10T01:41:02.016Z,23.91
2018-06-10T01:41:34.220Z,23.91
2018-06-10T01:42:06.216Z,23.89
2018-06-10T01:42:38.249Z,23.88
2018-06-10T01:43:10.308Z,23.87
2018-06-10T01:43:42.345Z,23.87
2018-06-10T01:44:14.361Z,23.85
2018-06-10T01:44:46.398Z,23.85
2018-06-10T01:45:18.418Z,23.83
2018-06-10T01:45:50.437Z,23.81
2018-06-10T01:46:22.523Z,23.86
2018-06-10T01:46:54.554Z,23.81
2018-06-10T01:47:26.574Z,23.78
2018-06-10T01:47:58.637Z,23.78
2018-06-10T01:48:30.686Z,23.78
2018-06-10T01:49:02.689Z,23.78
2018-06-10T01:49:34.759Z,23.79
2018-06-10T01:50:06.796Z,23.77
2018-06-10T01:50:38.821Z,23.77
2018-06-10T01:51:10.892Z,23.72
2018-06-10T01:51:42.911Z,23.72
2018-06-10T01:52:14.931Z,23.73
2018-06-10T01:52:47.024Z,23.75
2018-06-10T01:53:19.057Z,23.74
2018-06-10T01:53:51.084Z,23.73
2018-06-10T01:54:23.082Z,23.76
2018-06-10T01:54:55.229Z,23.71
2018-06-10T01:55:27.268Z,23.69
2018-06-10T01:55:59.344Z,23.66
2018-06-10T01:56:31.370Z,23.66
2018-06-10T01:57:03.384Z,23.66
2018-06-10T01:57:35.405Z,23.66
2018-06-10T01:58:07.606Z,23.64
2018-06-10T01:58:39.625Z,23.68
2018-06-10T01:59:11.827Z,23.72
2018-06-10T01:59:43.875Z,23.72
2018-06-10T02:00:15.919Z,23.74
2018-06-10T02:00:47.962Z,23.73
2018-06-10T02:01:20.002Z,23.78
2018-06-10T02:01:52.036Z,23.74
2018-06-10T02:02:24.089Z,23.73
2018-06-10T02:02:56.109Z,23.70
2018-06-10T02:03:28.134Z,23.68
2018-06-10T02:04:00.193Z,23.65
2018-06-10T02:04:32.328Z,23.63
2018-06-10T02:05:04.353Z,23.68
2018-06-10T02:05:36.383Z,23.70
2018-06-10T02:06:08.410Z,23.71
2018-06-10T02:06:40.441Z,23.71
2018-06-10T02:07:12.457Z,23.71
2018-06-10T02:07:44.488Z,23.69
2018-06-10T02:08:16.503Z,23.71
2018-06-10T02:08:48.744Z,23.71
2018-06-10T02:09:20.753Z,23.65
2018-06-10T02:09:52.802Z,23.67
2018-06-10T02:10:24.841Z,23.70
2018-06-10T02:10:56.854Z,23.67
2018-06-10T02:11:28.877Z,23.62
2018-06-10T02:12:00.912Z,23.60
2018-06-10T02:12:33.329Z,23.62
2018-06-10T02:13:05.217Z,23.59
2018-06-10T02:13:37.262Z,23.63
2018-06-10T02:14:09.294Z,23.59
2018-06-10T02:14:41.381Z,23.59
2018-06-10T02:15:13.473Z,23.61
2018-06-10T02:15:45.466Z,23.58
2018-06-10T02:16:17.479Z,23.63
2018-06-10T02:16:49.512Z,23.59
2018-06-10T02:17:21.776Z,23.59
2018-06-10T02:17:53.806Z,23.57
2018-06-10T02:18:25.839Z,23.56
2018-06-10T02:18:57.865Z,23.54
2018-06-10T02:19:29.886Z,23.53
2018-06-10T02:20:01.906Z,23.54
2018-06-10T02:20:33.941Z,23.56
2018-06-10T02:21:06.033Z,23.56
2018-06-10T02:21:38.087Z,23.56
2018-06-10T02:22:10.094Z,23.53
2018-06-10T02:22:42.118Z,23.51
2018-06-10T02:23:14.159Z,23.50
2018-06-10T02:23:46.228Z,23.51
2018-06-10T02:24:18.267Z,23.51
2018-06-10T02:24:50.375Z,23.47
2018-06-10T02:25:22.384Z,23.47
2018-06-10T02:25:54.443Z,23.47
2018-06-10T02:26:26.452Z,23.45
2018-06-10T02:26:58.489Z,23.41
2018-06-10T02:27:30.526Z,23.44
2018-06-10T02:28:02.575Z,23.46
2018-06-10T02:28:34.599Z,23.51
2018-06-10T02:29:06.644Z,23.53
2018-06-10T02:29:38.713Z,23.51
2018-06-10T02:30:10.745Z,23.51
2018-06-10T02:30:42.809Z,23.50
2018-06-10T02:31:14.842Z,23.51
2018-06-10T02:31:46.877Z,23.47
2018-06-10T02:32:18.901Z,23.48
2018-06-10T02:32:51.126Z,23.47
2018-06-10T02:33:23.156Z,23.44
2018-06-10T02:33:55.175Z,23.45
2018-06-10T02:34:27.197Z,23.40
2018-06-10T02:34:59.187Z,23.45
2018-06-10T02:35:31.226Z,23.39
2018-06-10T02:36:03.237Z,23.39
2018-06-10T02:36:35.272Z,23.38
2018-06-10T02:37:07.282Z,23.37
2018-06-10T02:37:39.300Z,23.39
2018-06-10T02:38:11.319Z,23.38
2018-06-10T02:38:43.523Z,23.39
2018-06-10T02:39:15.598Z,23.38
2018-06-10T02:39:47.618Z,23.35
2018-06-10T02:40:19.652Z,23.35
2018-06-10T02:40:51.656Z,23.37
2018-06-10T02:41:23.655Z,23.31
2018-06-10T02:41:55.669Z,23.32
2018-06-10T02:42:27.705Z,23.34
2018-06-10T02:42:59.723Z,23.33
2018-06-10T02:43:31.748Z,23.31
2018-06-10T02:44:03.760Z,23.29
2018-06-10T02:44:35.784Z,23.25
2018-06-10T02:45:07.800Z,23.27
2018-06-10T02:45:39.807Z,23.30
2018-06-10T02:46:11.825Z,23.31
2018-06-10T02:46:43.821Z,23.30
2018-06-10T02:47:15.838Z,23.30
2018-06-10T02:47:47.872Z,23.29
2018-06-10T02:48:19.883Z,23.32
2018-06-10T02:48:51.898Z,23.34
2018-06-10T02:49:23.931Z,23.38
2018-06-10T02:49:55.931Z,23.38
2018-06-10T02:50:27.946Z,23.39
2018-06-10T02:50:59.963Z,23.36
2018-06-10T02:51:31.972Z,23.36
2018-06-10T02:52:03.995Z,23.35
2018-06-10T02:52:36.026Z,23.35
2018-06-10T02:53:08.042Z,23.32
2018-06-10T02:53:40.083Z,23.29
2018-06-10T02:54:12.098Z,23.33
2018-06-10T02:54:44.092Z,23.32
2018-06-10T02:55:16.111Z,23.33
2018-06-10T02:55:48.116Z,23.32
2018-06-10T02:56:20.124Z,23.26
2018-06-10T02:56:52.145Z,23.27
2018-06-10T02:57:24.170Z,23.31
2018-06-10T02:57:56.177Z,23.32
2018-06-10T02:58:28.203Z,23.29
2018-06-10T02:59:00.217Z,23.31
2018-06-10T02:59:32.223Z,23.27
2018-06-10T03:00:04.249Z,23.28
2018-06-10T03:00:36.653Z,23.28
2018-06-10T03:01:08.556Z,23.27
2018-06-10T03:01:40.573Z,23.27
2018-06-10T03:02:12.586Z,23.28
2018-06-10T03:02:44.605Z,23.27
2018-06-10T03:03:16.628Z,23.30
2018-06-10T03:03:48.670Z,23.30
2018-06-10T03:04:20.702Z,23.31
2018-06-10T03:04:52.712Z,23.34
2018-06-10T03:05:24.720Z,23.34
2018-06-10T03:05:56.729Z,23.35
2018-06-10T03:06:28.736Z,23.30
2018-06-10T03:07:00.743Z,23.31
2018-06-10T03:07:32.759Z,23.28
2018-06-10T03:08:04.786Z,23.31
2018-06-10T03:08:36.790Z,23.30
2018-06-10T03:09:08.822Z,23.34
2018-06-10T03:09:40.861Z,23.32
2018-06-10T03:10:12.875Z,23.32
2018-06-10T03:10:44.888Z,23.29
2018-06-10T03:11:16.914Z,23.31
2018-06-10T03:11:48.933Z,23.33
2018-06-10T03:12:20.960Z,23.31
2018-06-10T03:12:52.968Z,23.29
2018-06-10T03:13:24.987Z,23.29
2018-06-10T03:13:57.001Z,23.33
2018-06-10T03:14:29.030Z,23.30
2018-06-10T03:15:01.048Z,23.36
2018-06-10T03:15:33.050Z,23.32
2018-06-10T03:16:05.074Z,23.30
2018-06-10T03:16:37.184Z,23.27
2018-06-10T03:17:09.208Z,23.24
2018-06-10T03:17:41.215Z,23.25
2018-06-10T03:18:13.225Z,23.26
2018-06-10T03:18:45.250Z,23.28
2018-06-10T03:19:17.283Z,23.29
2018-06-10T03:19:49.288Z,23.28
2018-06-10T03:20:21.309Z,23.25
2018-06-10T03:20:53.338Z,23.25
2018-06-10T03:21:25.356Z,23.26
2018-06-10T03:21:57.375Z,23.19
2018-06-10T03:22:29.386Z,23.22
2018-06-10T03:23:01.415Z,23.22
2018-06-10T03:23:33.423Z,23.21
2018-06-10T03:24:05.462Z,23.22
2018-06-10T03:24:37.471Z,23.20
2018-06-10T03:25:09.490Z,23.23
2018-06-10T03:25:41.495Z,23.25
2018-06-10T03:26:13.531Z,23.28
2018-06-10T03:26:45.564Z,23.30
2018-06-10T03:27:17.553Z,23.31
2018-06-10T03:27:49.559Z,23.29
2018-06-10T03:28:21.571Z,23.27
2018-06-10T03:28:53.577Z,23.28
2018-06-10T03:29:25.591Z,23.34
2018-06-10T03:29:57.595Z,23.37
2018-06-10T03:30:29.619Z,23.41
2018-06-10T03:31:01.647Z,23.40
2018-06-10T03:31:33.652Z,23.44
2018-06-10T03:32:05.686Z,23.47
2018-06-10T03:32:37.694Z,23.51
2018-06-10T03:33:09.741Z,23.51
2018-06-10T03:33:41.762Z,23.51
2018-06-10T03:34:13.795Z,23.52
2018-06-10T03:34:45.798Z,23.51
2018-06-10T03:35:17.849Z,23.52
2018-06-10T03:35:49.866Z,23.54
2018-06-10T03:36:21.906Z,23.57
2018-06-10T03:36:54.305Z,23.53
2018-06-10T03:37:26.189Z,23.54
2018-06-10T03:37:58.203Z,23.57
2018-06-10T03:38:30.217Z,23.57
2018-06-10T03:39:02.228Z,23.57
2018-06-10T03:39:34.235Z,23.56
2018-06-10T03:40:06.282Z,23.55
2018-06-10T03:40:38.303Z,23.55
2018-06-10T03:41:10.317Z,23.55
2018-06-10T03:41:42.330Z,23.51
2018-06-10T03:42:14.381Z,23.52
2018-06-10T03:42:46.392Z,23.52
2018-06-10T03:43:18.416Z,23.53
2018-06-10T03:43:50.421Z,23.52
2018-06-10T03:44:22.502Z,23.51
2018-06-10T03:44:54.543Z,23.53
2018-06-10T03:45:26.561Z,23.51
2018-06-10T03:45:58.575Z,23.48
2018-06-10T03:46:30.642Z,23.47
2018-06-10T03:47:02.650Z,23.48
2018-06-10T03:47:34.664Z,23.47
2018-06-10T03:48:06.686Z,23.48
2018-06-10T03:48:38.910Z,23.50
2018-06-10T03:49:10.929Z,23.51
2018-06-10T03:49:42.948Z,23.50
2018-06-10T03:50:14.960Z,23.49
2018-06-10T03:50:47.062Z,23.49
2018-06-10T03:51:19.087Z,23.48
2018-06-10T03:51:51.095Z,23.48
2018-06-10T03:52:23.109Z,23.51
2018-06-10T03:52:55.123Z,23.53
2018-06-10T03:53:27.125Z,23.55
2018-06-10T03:53:59.137Z,23.54
2018-06-10T03:54:31.166Z,23.57
2018-06-10T03:55:03.178Z,23.60
2018-06-10T03:55:35.203Z,23.60
2018-06-10T03:56:07.221Z,23.62
2018-06-10T03:56:39.250Z,23.63
2018-06-10T03:57:11.269Z,23.62
2018-06-10T03:57:43.496Z,23.61
2018-06-10T03:58:15.572Z,23.58
2018-06-10T03:58:47.617Z,23.57
2018-06-10T03:59:19.622Z,23.57
2018-06-10T03:59:51.638Z,23.56
2018-06-10T04:00:23.652Z,23.51
2018-06-10T04:00:55.663Z,23.50
2018-06-10T04:01:27.697Z,23.48
2018-06-10T04:01:59.685Z,23.48
2018-06-10T04:02:31.715Z,23.48
2018-06-10T04:03:03.736Z,23.48
2018-06-10T04:03:35.773Z,23.51
2018-06-10T04:04:07.773Z,23.50
2018-06-10T04:04:39.854Z,23.47
2018-06-10T04:05:11.862Z,23.45
2018-06-10T04:05:43.884Z,23.47
2018-06-10T04:06:15.905Z,23.47
2018-06-10T04:06:47.959Z,23.47
2018-06-10T04:07:19.987Z,23.48
2018-06-10T04:07:52.066Z,23.54
2018-06-10T04:08:24.100Z,23.57
2018-06-10T04:08:56.130Z,23.62
2018-06-10T04:09:28.180Z,23.60
2018-06-10T04:10:00.176Z,23.43
2018-06-10T04:10:32.205Z,23.13
2018-06-10T04:11:04.199Z,22.95
2018-06-10T04:11:36.221Z,22.81
2018-06-10T04:12:08.267Z,22.69
2018-06-10T04:12:40.304Z,22.60
2018-06-10T04:13:12.283Z,22.55
2018-06-10T04:13:44.315Z,22.55
2018-06-10T04:14:16.331Z,22.48
2018-06-10T04:14:48.355Z,22.44
2018-06-10T04:15:20.383Z,22.38
2018-06-10T04:15:52.395Z,22.36
2018-06-10T04:16:24.405Z,22.34
2018-06-10T04:16:56.448Z,22.33
2018-06-10T04:17:28.473Z,22.31
2018-06-10T04:18:00.493Z,22.26
2018-06-10T04:18:32.511Z,22.32
2018-06-10T04:19:04.519Z,22.31
2018-06-10T04:19:36.576Z,22.39
2018-06-10T04:20:08.603Z,22.37
2018-06-10T04:20:40.616Z,22.37
2018-06-10T04:21:12.631Z,22.29
2018-06-10T04:21:44.653Z,22.22
2018-06-10T04:22:16.724Z,22.23
2018-06-10T04:22:48.740Z,22.21
2018-06-10T04:23:20.750Z,22.24
2018-06-10T04:23:52.770Z,22.24
2018-06-10T04:24:24.779Z,22.20
2018-06-10T04:24:56.808Z,22.21
2018-06-10T04:25:28.839Z,22.21
2018-06-10T04:26:00.850Z,22.22
2018-06-10T04:26:32.873Z,22.22
2018-06-10T04:27:04.903Z,22.22
2018-06-10T04:27:36.917Z,22.26
2018-06-10T04:28:08.935Z,22.25
2018-06-10T04:28:40.954Z,22.30
2018-06-10T04:29:12.980Z,22.24
2018-06-10T04:29:45.049Z,22.25
2018-06-10T04:30:17.083Z,22.27
2018-06-10T04:30:49.100Z,22.29
2018-06-10T04:31:21.136Z,22.29
2018-06-10T04:31:53.136Z,22.27
2018-06-10T04:32:25.151Z,22.29
2018-06-10T04:32:57.208Z,22.24
2018-06-10T04:33:29.235Z,22.22
2018-06-10T04:34:01.248Z,22.24
2018-06-10T04:34:33.277Z,22.29
2018-06-10T04:35:05.307Z,22.32
2018-06-10T04:35:37.342Z,22.30
2018-06-10T04:36:09.347Z,22.30
2018-06-10T04:36:41.357Z,22.33
2018-06-10T04:37:13.370Z,22.39
2018-06-10T04:37:45.422Z,22.39
2018-06-10T04:38:17.450Z,22.37
2018-06-10T04:38:49.456Z,22.38
2018-06-10T04:39:21.469Z,22.32
2018-06-10T04:39:53.504Z,22.29
2018-06-10T04:40:25.515Z,22.28
2018-06-10T04:40:57.525Z,22.27
2018-06-10T04:41:29.538Z,22.26
2018-06-10T04:42:01.567Z,22.28
2018-06-10T04:42:33.559Z,22.25
2018-06-10T04:43:05.583Z,22.24
2018-06-10T04:43:37.592Z,22.31
2018-06-10T04:44:09.600Z,22.36
2018-06-10T04:44:41.637Z,22.42
2018-06-10T04:45:13.662Z,22.43
2018-06-10T04:45:45.675Z,22.37
2018-06-10T04:46:17.698Z,22.34
2018-06-10T04:46:49.730Z,22.24
2018-06-10T04:47:22.161Z,22.25
2018-06-10T04:47:54.050Z,22.25
2018-06-10T04:48:26.082Z,22.24
2018-06-10T04:48:58.097Z,22.20
2018-06-10T04:49:30.114Z,22.17
2018-06-10T04:50:02.167Z,22.20
2018-06-10T04:50:34.185Z,22.20
2018-06-10T04:51:06.199Z,22.20
2018-06-10T04:51:38.214Z,22.20
2018-06-10T04:52:10.231Z,22.26
2018-06-10T04:52:42.243Z,22.27
2018-06-10T04:53:14.271Z,22.31
2018-06-10T04:53:46.284Z,22.29
2018-06-10T04:54:18.302Z,22.33
2018-06-10T04:54:50.308Z,22.34
2018-06-10T04:55:22.345Z,22.37
2018-06-10T04:55:54.358Z,22.35
2018-06-10T04:56:26.363Z,22.34
2018-06-10T04:56:58.765Z,22.38
2018-06-10T04:57:30.660Z,22.40
2018-06-10T04:58:02.679Z,22.41
2018-06-10T04:58:34.703Z,22.46
2018-06-10T04:59:06.726Z,22.45
2018-06-10T04:59:38.745Z,22.44
2018-06-10T05:00:10.911Z,22.47
2018-06-10T05:00:42.895Z,22.44
2018-06-10T05:01:14.910Z,22.46
2018-06-10T05:01:46.913Z,22.46
2018-06-10T05:02:18.936Z,22.46
2018-06-10T05:02:51.321Z,22.44
2018-06-10T05:03:23.214Z,22.43
2018-06-10T05:03:55.253Z,22.42
2018-06-10T05:04:27.254Z,22.40
2018-06-10T05:04:59.298Z,22.35
2018-06-10T05:05:31.324Z,22.34
2018-06-10T05:06:03.327Z,22.37
2018-06-10T05:06:35.341Z,22.38
2018-06-10T05:07:07.376Z,22.41
2018-06-10T05:07:39.396Z,22.40
2018-06-10T05:08:11.416Z,22.33
2018-06-10T05:08:43.437Z,22.38
2018-06-10T05:09:15.445Z,22.40
2018-06-10T05:09:47.472Z,22.42
2018-06-10T05:10:19.503Z,22.42
2018-06-10T05:10:51.524Z,22.41
2018-06-10T05:11:23.545Z,22.42
2018-06-10T05:11:55.577Z,22.38
2018-06-10T05:12:27.573Z,22.37
2018-06-10T05:12:59.609Z,22.41
2018-06-10T05:13:31.610Z,22.42
2018-06-10T05:14:03.662Z,22.40
2018-06-10T05:14:35.665Z,22.40
2018-06-10T05:15:07.687Z,22.38
2018-06-10T05:15:39.706Z,22.37
2018-06-10T05:16:11.731Z,22.37
2018-06-10T05:16:43.736Z,22.38
2018-06-10T05:17:15.755Z,22.37
2018-06-10T05:17:47.763Z,22.35
2018-06-10T05:18:19.780Z,22.36
2018-06-10T05:18:51.808Z,22.36
2018-06-10T05:19:23.830Z,22.38
2018-06-10T05:19:55.917Z,22.36
2018-06-10T05:20:27.906Z,22.39
2018-06-10T05:20:59.912Z,22.42
2018-06-10T05:21:31.922Z,22.44
2018-06-10T05:22:03.926Z,22.46
2018-06-10T05:22:35.994Z,22.44
2018-06-10T05:23:07.985Z,22.45
2018-06-10T05:23:40.027Z,22.45
2018-06-10T05:24:12.028Z,22.57
2018-06-10T05:24:44.058Z,22.72
2018-06-10T05:25:17.710Z,22.84
2018-06-10T05:25:50.968Z,22.90
2018-06-10T05:26:22.979Z,22.96
2018-06-10T05:26:55.006Z,23.02
2018-06-10T05:27:27.019Z,23.07
2018-06-10T05:27:59.051Z,23.09
2018-06-10T05:28:31.066Z,23.14
2018-06-10T05:29:03.087Z,23.15
2018-06-10T05:29:35.097Z,23.15
2018-06-10T05:30:07.129Z,23.17
2018-06-10T05:30:39.151Z,23.18
2018-06-10T05:31:11.158Z,23.22
2018-06-10T05:31:43.173Z,23.24
2018-06-10T05:32:15.270Z,23.26
2018-06-10T05:32:47.432Z,23.25
2018-06-10T05:33:19.432Z,23.29
2018-06-10T05:33:51.452Z,23.30
2018-06-10T05:34:23.469Z,23.32
2018-06-10T05:34:55.483Z,23.30
2018-06-10T05:35:27.503Z,23.29
2018-06-10T05:35:59.521Z,23.27
2018-06-10T05:36:31.534Z,23.25
2018-06-10T05:37:03.545Z,23.26
2018-06-10T05:37:35.563Z,23.25
2018-06-10T05:38:07.593Z,23.26
2018-06-10T05:38:39.610Z,23.29
2018-06-10T05:39:11.746Z,23.32
2018-06-10T05:39:43.733Z,23.32
2018-06-10T05:40:15.740Z,23.29
2018-06-10T05:40:47.767Z,23.31
2018-06-10T05:41:19.781Z,23.31
2018-06-10T05:41:51.810Z,23.31
2018-06-10T05:42:23.823Z,23.30
2018-06-10T05:42:55.838Z,23.29
2018-06-10T05:43:27.857Z,23.29
2018-06-10T05:43:59.889Z,23.29
2018-06-10T05:44:31.910Z,23.32
2018-06-10T05:45:03.921Z,23.35
2018-06-10T05:45:35.977Z,23.38
2018-06-10T05:46:07.998Z,23.42
2018-06-10T05:46:40.029Z,23.40
2018-06-10T05:47:12.057Z,23.38
2018-06-10T05:47:44.057Z,23.38
2018-06-10T05:48:16.084Z,23.33
2018-06-10T05:48:48.092Z,23.31
2018-06-10T05:49:20.109Z,23.29
2018-06-10T05:49:52.132Z,23.27
2018-06-10T05:50:24.159Z,23.30
2018-06-10T05:50:56.171Z,23.31
2018-06-10T05:51:28.569Z,23.31
2018-06-10T05:52:00.465Z,23.32
2018-06-10T05:52:32.520Z,23.31
2018-06-10T05:53:04.511Z,23.29
2018-06-10T05:53:36.527Z,23.26
2018-06-10T05:54:08.571Z,23.30
2018-06-10T05:54:40.581Z,23.33
2018-06-10T05:55:12.592Z,23.35
2018-06-10T05:55:44.665Z,23.34
2018-06-10T05:56:16.682Z,23.35
2018-06-10T05:56:48.700Z,23.37
2018-06-10T05:57:20.707Z,23.37
2018-06-10T05:57:52.716Z,23.38
2018-06-10T05:58:24.787Z,23.38
2018-06-10T05:58:56.767Z,23.37
2018-06-10T05:59:28.777Z,23.37
2018-06-10T06:00:00.794Z,23.36
2018-06-10T06:00:32.870Z,23.38
2018-06-10T06:01:04.851Z,23.37
2018-06-10T06:01:36.898Z,23.38
2018-06-10T06:02:08.918Z,23.35
2018-06-10T06:02:40.941Z,23.36
2018-06-10T06:03:12.943Z,23.36
2018-06-10T06:03:44.991Z,23.42
2018-06-10T06:04:16.998Z,23.43
2018-06-10T06:04:49.502Z,23.40
2018-06-10T06:05:21.899Z,23.39
2018-06-10T06:05:53.942Z,23.37
2018-06-10T06:06:25.946Z,23.37
2018-06-10T06:06:57.969Z,23.36
2018-06-10T06:07:30.011Z,23.35
2018-06-10T06:08:02.007Z,23.35
2018-06-10T06:08:34.014Z,23.38
2018-06-10T06:09:06.076Z,23.39
2018-06-10T06:09:38.115Z,23.40
2018-06-10T06:10:10.127Z,23.41
2018-06-10T06:10:42.135Z,23.39
2018-06-10T06:11:14.177Z,23.40
2018-06-10T06:11:46.213Z,23.46
2018-06-10T06:12:18.215Z,23.48
2018-06-10T06:12:50.234Z,23.46
2018-06-10T06:13:22.271Z,23.47
2018-06-10T06:13:54.261Z,23.49
2018-06-10T06:14:26.266Z,23.50
2018-06-10T06:14:58.307Z,23.48
2018-06-10T06:15:30.326Z,23.51
2018-06-10T06:16:02.367Z,23.48
2018-06-10T06:16:34.376Z,23.49
2018-06-10T06:17:06.394Z,23.51
2018-06-10T06:17:38.835Z,23.51
2018-06-10T06:18:10.736Z,23.51
2018-06-10T06:18:42.771Z,23.54
2018-06-10T06:19:14.798Z,23.50
2018-06-10T06:19:46.840Z,23.49
2018-06-10T06:20:18.891Z,23.50
2018-06-10T06:20:50.898Z,23.48
2018-06-10T06:21:22.931Z,23.46
2018-06-10T06:21:54.946Z,23.45
2018-06-10T06:22:26.952Z,23.47
2018-06-10T06:22:58.977Z,23.48
2018-06-10T06:23:30.983Z,23.48
2018-06-10T06:24:03.011Z,23.50
2018-06-10T06:24:35.028Z,23.50
2018-06-10T06:25:07.059Z,23.52
2018-06-10T06:25:39.071Z,23.51
2018-06-10T06:26:11.077Z,23.50
2018-06-10T06:26:43.108Z,23.50
2018-06-10T06:27:15.151Z,23.50
2018-06-10T06:27:47.150Z,23.53
2018-06-10T06:28:19.178Z,23.54
2018-06-10T06:28:51.185Z,23.57
2018-06-10T06:29:23.203Z,23.58
2018-06-10T06:29:55.258Z,23.56
2018-06-10T06:30:27.282Z,23.56
2018-06-10T06:30:59.318Z,23.52
2018-06-10T06:31:31.307Z,23.52
2018-06-10T06:32:03.322Z,23.54
2018-06-10T06:32:35.349Z,23.52
2018-06-10T06:33:07.361Z,23.52
2018-06-10T06:33:39.474Z,23.54
2018-06-10T06:34:11.446Z,23.54
2018-06-10T06:34:43.448Z,23.53
2018-06-10T06:35:15.469Z,23.55
2018-06-10T06:35:47.508Z,23.55
2018-06-10T06:36:19.516Z,23.57
2018-06-10T06:36:51.518Z,23.59
2018-06-10T06:37:23.530Z,23.59
2018-06-10T06:37:55.555Z,23.60
2018-06-10T06:38:27.624Z,23.62
2018-06-10T06:38:59.628Z,23.63
2018-06-10T06:39:31.653Z,23.62
2018-06-10T06:40:03.658Z,23.63
2018-06-10T06:40:35.709Z,23.62
2018-06-10T06:41:07.711Z,23.59
2018-06-10T06:41:39.726Z,23.58
2018-06-10T06:42:11.763Z,23.59
2018-06-10T06:42:43.794Z,23.62
2018-06-10T06:43:15.802Z,23.60
2018-06-10T06:43:47.810Z,23.58
2018-06-10T06:44:19.823Z,23.59
2018-06-10T06:44:51.842Z,23.59
2018-06-10T06:45:23.849Z,23.60
2018-06-10T06:45:55.899Z,23.59
2018-06-10T06:46:27.917Z,23.58
2018-06-10T06:46:59.947Z,23.57
2018-06-10T06:47:31.939Z,23.57
2018-06-10T06:48:04.011Z,23.58
2018-06-10T06:48:36.067Z,23.59
2018-06-10T06:49:08.105Z,23.62
2018-06-10T06:49:40.140Z,23.65
2018-06-10T06:50:12.262Z,23.67
2018-06-10T06:50:44.294Z,23.68
2018-06-10T06:51:16.310Z,23.69
2018-06-10T06:51:48.312Z,23.66
2018-06-10T06:52:20.318Z,23.65